sensor_id;sensor_type;location;lat;lon;timestamp;pressure;altitude;pressure_sealevel;temperature;humidity
23241;BME280;11789;53.482;9.862;2023-03-20T00:02:54;101741.06;;;8.58;100.00
23241;BME280;11789;53.482;9.862;2023-03-20T00:05:22;101730.75;;;8.58;100.00
23241;BME280;11789;53.482;9.862;2023-03-20T00:07:49;101728.09;;;8.55;100.00
23241;BME280;11789;53.482;9.862;2023-03-20T00:10:16;101737.56;;;8.56;100.00
23241;BME280;11789;53.482;9.862;2023-03-20T00:12:42;101736.78;;;8.59;100.00
23241;BME280;11789;53.482;9.862;2023-03-20T00:15:30;101734.19;;;8.57;100.00
23241;BME280;11789;53.482;9.862;2023-03-20T00:17:56;101735.94;;;8.60;100.00
23241;BME280;11789;53.482;9.862;2023-03-20T00:20:22;101733.34;;;8.60;100.00
23241;BME280;11789;53.482;9.862;2023-03-20T00:22:48;101728.28;;;8.63;100.00
23241;BME280;11789;53.482;9.862;2023-03-20T00:25:16;101729.16;;;8.64;100.00
23241;BME280;11789;53.482;9.862;2023-03-20T00:27:43;101727.47;;;8.66;100.00
23241;BME280;11789;53.482;9.862;2023-03-20T00:30:24;101724.87;;;8.66;100.00
23241;BME280;11789;53.482;9.862;2023-03-20T00:32:51;101721.41;;;8.64;100.00
23241;BME280;11789;53.482;9.862;2023-03-20T00:35:22;101717.03;;;8.61;100.00
23241;BME280;11789;53.482;9.862;2023-03-20T00:37:48;101715.34;;;8.62;100.00
23241;BME280;11789;53.482;9.862;2023-03-20T00:40:14;101716.19;;;8.61;100.00
23241;BME280;11789;53.482;9.862;2023-03-20T00:42:40;101716.16;;;8.59;100.00
23241;BME280;11789;53.482;9.862;2023-03-20T00:45:11;101718.81;;;8.62;100.00
23241;BME280;11789;53.482;9.862;2023-03-20T00:47:38;101716.25;;;8.64;100.00
23241;BME280;11789;53.482;9.862;2023-03-20T00:50:14;101717.09;;;8.63;100.00
23241;BME280;11789;53.482;9.862;2023-03-20T00:52:40;101715.28;;;8.58;100.00
23241;BME280;11789;53.482;9.862;2023-03-20T00:55:06;101708.44;;;8.59;100.00
23241;BME280;11789;53.482;9.862;2023-03-20T00:57:47;101711.87;;;8.60;100.00
23241;BME280;11789;53.482;9.862;2023-03-20T01:02:57;101719.53;;;8.56;100.00
23241;BME280;11789;53.482;9.862;2023-03-20T01:05:25;101726.38;;;8.56;100.00
23241;BME280;11789;53.482;9.862;2023-03-20T01:07:51;101717.78;;;8.55;100.00
23241;BME280;11789;53.482;9.862;2023-03-20T01:10:17;101715.16;;;8.52;100.00
23241;BME280;11789;53.482;9.862;2023-03-20T01:12:45;101717.78;;;8.54;100.00
23241;BME280;11789;53.482;9.862;2023-03-20T01:15:17;101722.94;;;8.55;100.00
23241;BME280;11789;53.482;9.862;2023-03-20T01:17:43;101724.66;;;8.55;100.00
23241;BME280;11789;53.482;9.862;2023-03-20T01:20:14;101723.75;;;8.53;100.00
23241;BME280;11789;53.482;9.862;2023-03-20T01:22:40;101722.09;;;8.56;100.00
23241;BME280;11789;53.482;9.862;2023-03-20T01:25:06;101727.22;;;8.55;100.00
23241;BME280;11789;53.482;9.862;2023-03-20T01:27:32;101722.06;;;8.55;100.00
23241;BME280;11789;53.482;9.862;2023-03-20T01:29:57;101721.22;;;8.56;100.00
23241;BME280;11789;53.482;9.862;2023-03-20T01:32:22;101727.22;;;8.55;100.00
23241;BME280;11789;53.482;9.862;2023-03-20T01:34:48;101721.22;;;8.54;100.00
23241;BME280;11789;53.482;9.862;2023-03-20T01:37:17;101725.50;;;8.54;100.00
23241;BME280;11789;53.482;9.862;2023-03-20T01:39:43;101729.81;;;8.55;100.00
23241;BME280;11789;53.482;9.862;2023-03-20T01:42:13;101724.66;;;8.55;100.00
23241;BME280;11789;53.482;9.862;2023-03-20T01:44:40;101730.62;;;8.52;100.00
23241;BME280;11789;53.482;9.862;2023-03-20T01:47:15;101731.53;;;8.54;100.00
23241;BME280;11789;53.482;9.862;2023-03-20T01:52:48;101728.87;;;8.51;100.00
23241;BME280;11789;53.482;9.862;2023-03-20T01:55:15;101728.87;;;8.51;100.00
23241;BME280;11789;53.482;9.862;2023-03-20T01:57:40;101727.12;;;8.50;100.00
23241;BME280;11789;53.482;9.862;2023-03-20T02:00:12;101731.41;;;8.50;100.00
23241;BME280;11789;53.482;9.862;2023-03-20T02:02:40;101732.28;;;8.50;100.00
23241;BME280;11789;53.482;9.862;2023-03-20T02:05:10;101734.00;;;8.50;100.00
23241;BME280;11789;53.482;9.862;2023-03-20T02:07:37;101735.72;;;8.49;100.00
23241;BME280;11789;53.482;9.862;2023-03-20T02:10:08;101730.56;;;8.49;100.00
23241;BME280;11789;53.482;9.862;2023-03-20T02:12:35;101730.56;;;8.51;100.00
23241;BME280;11789;53.482;9.862;2023-03-20T02:15:02;101722.84;;;8.51;100.00
23241;BME280;11789;53.482;9.862;2023-03-20T02:17:27;101720.25;;;8.49;100.00
23241;BME280;11789;53.482;9.862;2023-03-20T02:20:13;101717.59;;;8.46;100.00
23241;BME280;11789;53.482;9.862;2023-03-20T02:30:44;101715.72;;;8.39;100.00
23241;BME280;11789;53.482;9.862;2023-03-20T02:44:29;101712.03;;;8.29;100.00
23241;BME280;11789;53.482;9.862;2023-03-20T02:47:13;101717.19;;;8.29;100.00
23241;BME280;11789;53.482;9.862;2023-03-20T02:58:09;101716.34;;;8.29;100.00
23241;BME280;11789;53.482;9.862;2023-03-20T03:00:48;101716.25;;;8.26;100.00
23241;BME280;11789;53.482;9.862;2023-03-20T03:03:27;101718.81;;;8.24;100.00
23241;BME280;11789;53.482;9.862;2023-03-20T03:06:09;101713.66;;;8.26;100.00
23241;BME280;11789;53.482;9.862;2023-03-20T03:08:41;101718.88;;;8.27;100.00
23241;BME280;11789;53.482;9.862;2023-03-20T03:11:09;101710.22;;;8.25;100.00
23241;BME280;11789;53.482;9.862;2023-03-20T03:13:54;101718.81;;;8.24;100.00
23241;BME280;11789;53.482;9.862;2023-03-20T03:16:25;101712.78;;;8.24;100.00
23241;BME280;11789;53.482;9.862;2023-03-20T03:19:04;101702.47;;;8.22;100.00
23241;BME280;11789;53.482;9.862;2023-03-20T03:21:34;101703.34;;;8.24;100.00
23241;BME280;11789;53.482;9.862;2023-03-20T03:24:01;101707.72;;;8.27;100.00
23241;BME280;11789;53.482;9.862;2023-03-20T03:26:30;101699.91;;;8.24;100.00
23241;BME280;11789;53.482;9.862;2023-03-20T03:28:59;101691.31;;;8.23;100.00
23241;BME280;11789;53.482;9.862;2023-03-20T03:31:27;101689.56;;;8.22;100.00
23241;BME280;11789;53.482;9.862;2023-03-20T03:33:55;101690.38;;;8.20;100.00
23241;BME280;11789;53.482;9.862;2023-03-20T03:36:36;101696.19;;;8.11;100.00
23241;BME280;11789;53.482;9.862;2023-03-20T03:42:34;101692.69;;;8.07;100.00
23241;BME280;11789;53.482;9.862;2023-03-20T03:47:56;101686.81;;;8.15;100.00
23241;BME280;11789;53.482;9.862;2023-03-20T03:53:05;101677.31;;;8.12;100.00
23241;BME280;11789;53.482;9.862;2023-03-20T03:55:39;101679.84;;;8.11;100.00
23241;BME280;11789;53.482;9.862;2023-03-20T03:58:22;101679.81;;;8.09;100.00
23241;BME280;11789;53.482;9.862;2023-03-20T04:00:53;101675.50;;;8.06;100.00
23241;BME280;11789;53.482;9.862;2023-03-20T04:03:23;101677.97;;;8.03;100.00
23241;BME280;11789;53.482;9.862;2023-03-20T04:05:53;101676.28;;;8.04;100.00
23241;BME280;11789;53.482;9.862;2023-03-20T04:08:21;101683.06;;;8.00;100.00
23241;BME280;11789;53.482;9.862;2023-03-20T04:10:46;101680.53;;;8.02;100.00
23241;BME280;11789;53.482;9.862;2023-03-20T04:13:11;101683.06;;;8.00;100.00
23241;BME280;11789;53.482;9.862;2023-03-20T04:15:37;101678.81;;;8.01;100.00
23241;BME280;11789;53.482;9.862;2023-03-20T04:18:03;101683.06;;;8.00;100.00
23241;BME280;11789;53.482;9.862;2023-03-20T04:20:29;101678.72;;;7.98;100.00
23241;BME280;11789;53.482;9.862;2023-03-20T04:22:54;101682.88;;;7.91;100.00
23241;BME280;11789;53.482;9.862;2023-03-20T04:25:22;101678.50;;;7.89;100.00
23241;BME280;11789;53.482;9.862;2023-03-20T04:27:48;101676.75;;;7.86;100.00
23241;BME280;11789;53.482;9.862;2023-03-20T04:30:15;101675.75;;;7.81;100.00
23241;BME280;11789;53.482;9.862;2023-03-20T04:32:40;101678.34;;;7.81;100.00
23241;BME280;11789;53.482;9.862;2023-03-20T04:35:06;101678.34;;;7.81;100.00
23241;BME280;11789;53.482;9.862;2023-03-20T04:37:32;101677.50;;;7.82;100.00
23241;BME280;11789;53.482;9.862;2023-03-20T04:39:58;101674.00;;;7.80;100.00
23241;BME280;11789;53.482;9.862;2023-03-20T04:42:23;101678.28;;;7.79;100.00
23241;BME280;11789;53.482;9.862;2023-03-20T04:44:48;101683.47;;;7.81;100.00
23241;BME280;11789;53.482;9.862;2023-03-20T04:47:14;101675.69;;;7.79;100.00
23241;BME280;11789;53.482;9.862;2023-03-20T04:49:40;101678.28;;;7.79;100.00
23241;BME280;11789;53.482;9.862;2023-03-20T04:52:05;101675.81;;;7.84;100.00
23241;BME280;11789;53.482;9.862;2023-03-20T04:54:31;101676.75;;;7.88;100.00
23241;BME280;11789;53.482;9.862;2023-03-20T04:56:56;101676.78;;;7.89;100.00
23241;BME280;11789;53.482;9.862;2023-03-20T04:59:22;101675.03;;;7.87;100.00
23241;BME280;11789;53.482;9.862;2023-03-20T05:01:47;101675.81;;;7.84;100.00
23241;BME280;11789;53.482;9.862;2023-03-20T05:04:12;101681.03;;;7.86;100.00
23241;BME280;11789;53.482;9.862;2023-03-20T05:06:38;101679.22;;;7.83;100.00
23241;BME280;11789;53.482;9.862;2023-03-20T05:09:04;101672.38;;;7.84;100.00
23241;BME280;11789;53.482;9.862;2023-03-20T05:11:30;101674.00;;;7.80;100.00
23241;BME280;11789;53.482;9.862;2023-03-20T05:13:56;101673.13;;;7.79;100.00
23241;BME280;11789;53.482;9.862;2023-03-20T05:16:21;101675.69;;;7.79;100.00
23241;BME280;11789;53.482;9.862;2023-03-20T05:18:47;101678.34;;;7.81;100.00
23241;BME280;11789;53.482;9.862;2023-03-20T05:21:12;101675.69;;;7.78;100.00
23241;BME280;11789;53.482;9.862;2023-03-20T05:23:38;101677.31;;;7.74;100.00
23241;BME280;11789;53.482;9.862;2023-03-20T05:26:03;101685.84;;;7.72;100.00
23241;BME280;11789;53.482;9.862;2023-03-20T05:28:29;101684.09;;;7.71;100.00
23241;BME280;11789;53.482;9.862;2023-03-20T05:30:55;101684.91;;;7.70;100.00
23241;BME280;11789;53.482;9.862;2023-03-20T05:33:21;101685.75;;;7.69;100.00
23241;BME280;11789;53.482;9.862;2023-03-20T05:35:46;101690.84;;;7.66;100.00
23241;BME280;11789;53.482;9.862;2023-03-20T05:38:12;101694.22;;;7.65;100.00
23241;BME280;11789;53.482;9.862;2023-03-20T05:40:37;101707.94;;;7.64;100.00
23241;BME280;11789;53.482;9.862;2023-03-20T05:43:03;101701.06;;;7.64;100.00
23241;BME280;11789;53.482;9.862;2023-03-20T05:45:29;101702.78;;;7.64;100.00
23241;BME280;11789;53.482;9.862;2023-03-20T05:47:54;101711.44;;;7.66;100.00
23241;BME280;11789;53.482;9.862;2023-03-20T05:50:20;101702.88;;;7.67;100.00
23241;BME280;11789;53.482;9.862;2023-03-20T05:52:47;101713.09;;;7.65;100.00
23241;BME280;11789;53.482;9.862;2023-03-20T05:55:13;101713.09;;;7.65;100.00
23241;BME280;11789;53.482;9.862;2023-03-20T05:57:39;101712.31;;;7.68;100.00
23241;BME280;11789;53.482;9.862;2023-03-20T06:00:06;101717.38;;;7.65;100.00
23241;BME280;11789;53.482;9.862;2023-03-20T06:02:32;101725.03;;;7.62;100.00
23241;BME280;11789;53.482;9.862;2023-03-20T06:04:58;101724.97;;;7.60;100.00
23241;BME280;11789;53.482;9.862;2023-03-20T06:07:23;101716.47;;;7.63;100.00
23241;BME280;11789;53.482;9.862;2023-03-20T06:09:49;101717.44;;;7.66;100.00
23241;BME280;11789;53.482;9.862;2023-03-20T06:12:14;101711.47;;;7.69;100.00
23241;BME280;11789;53.482;9.862;2023-03-20T06:14:40;101712.31;;;7.68;100.00
23241;BME280;11789;53.482;9.862;2023-03-20T06:17:05;101716.59;;;7.67;100.00
23241;BME280;11789;53.482;9.862;2023-03-20T06:19:31;101723.47;;;7.67;100.00
23241;BME280;11789;53.482;9.862;2023-03-20T06:21:56;101722.63;;;7.68;100.00
23241;BME280;11789;53.482;9.862;2023-03-20T06:24:22;101722.72;;;7.71;100.00
23241;BME280;11789;53.482;9.862;2023-03-20T06:26:48;101719.22;;;7.70;100.00
23241;BME280;11789;53.482;9.862;2023-03-20T06:29:13;101723.50;;;7.70;100.00
23241;BME280;11789;53.482;9.862;2023-03-20T06:31:39;101730.44;;;7.71;100.00
23241;BME280;11789;53.482;9.862;2023-03-20T06:34:04;101728.75;;;7.73;100.00
23241;BME280;11789;53.482;9.862;2023-03-20T06:36:30;101728.75;;;7.73;100.00
23241;BME280;11789;53.482;9.862;2023-03-20T06:38:58;101723.59;;;7.73;100.00
23241;BME280;11789;53.482;9.862;2023-03-20T06:41:24;101728.72;;;7.71;100.00
23241;BME280;11789;53.482;9.862;2023-03-20T06:43:50;101729.63;;;7.73;100.00
23241;BME280;11789;53.482;9.862;2023-03-20T06:46:15;101735.63;;;7.74;100.00
23241;BME280;11789;53.482;9.862;2023-03-20T06:48:41;101733.06;;;7.74;100.00
23241;BME280;11789;53.482;9.862;2023-03-20T06:51:06;101733.09;;;7.75;100.00
23241;BME280;11789;53.482;9.862;2023-03-20T06:53:32;101734.75;;;7.72;100.00
23241;BME280;11789;53.482;9.862;2023-03-20T06:55:58;101741.53;;;7.70;100.00
23241;BME280;11789;53.482;9.862;2023-03-20T06:58:24;101735.50;;;7.69;100.00
23241;BME280;11789;53.482;9.862;2023-03-20T07:00:49;101740.72;;;7.71;100.00
23241;BME280;11789;53.482;9.862;2023-03-20T07:03:16;101739.81;;;7.70;100.00
23241;BME280;11789;53.482;9.862;2023-03-20T07:05:42;101740.72;;;7.71;100.00
23241;BME280;11789;53.482;9.862;2023-03-20T07:08:07;101738.09;;;7.69;100.00
23241;BME280;11789;53.482;9.862;2023-03-20T07:10:33;101738.09;;;7.69;100.00
23241;BME280;11789;53.482;9.862;2023-03-20T07:12:59;101733.81;;;7.70;100.00
23241;BME280;11789;53.482;9.862;2023-03-20T07:15:25;101745.03;;;7.72;100.00
23241;BME280;11789;53.482;9.862;2023-03-20T07:17:51;101741.63;;;7.73;100.00
23241;BME280;11789;53.482;9.862;2023-03-20T07:20:18;101746.78;;;7.74;100.00
23241;BME280;11789;53.482;9.862;2023-03-20T07:22:43;101744.28;;;7.76;100.00
23241;BME280;11789;53.482;9.862;2023-03-20T07:25:09;101745.09;;;7.75;100.00
23241;BME280;11789;53.482;9.862;2023-03-20T07:27:35;101753.69;;;7.75;100.00
23241;BME280;11789;53.482;9.862;2023-03-20T07:30:03;101745.94;;;7.74;100.00
23241;BME280;11789;53.482;9.862;2023-03-20T07:32:28;101751.06;;;7.74;100.00
23241;BME280;11789;53.482;9.862;2023-03-20T07:34:54;101743.38;;;7.75;100.00
23241;BME280;11789;53.482;9.862;2023-03-20T07:37:19;101739.13;;;7.76;100.00
23241;BME280;11789;53.482;9.862;2023-03-20T07:39:44;101747.75;;;7.78;100.00
23241;BME280;11789;53.482;9.862;2023-03-20T07:42:10;101758.03;;;7.78;100.00
23241;BME280;11789;53.482;9.862;2023-03-20T07:44:38;101745.22;;;7.79;100.00
23241;BME280;11789;53.482;9.862;2023-03-20T07:47:03;101757.28;;;7.82;100.00
23241;BME280;11789;53.482;9.862;2023-03-20T07:49:30;101759.94;;;7.85;100.00
23241;BME280;11789;53.482;9.862;2023-03-20T07:51:55;101754.03;;;7.89;100.00
23241;BME280;11789;53.482;9.862;2023-03-20T07:54:21;101759.25;;;7.92;100.00
23241;BME280;11789;53.482;9.862;2023-03-20T07:56:46;101759.22;;;7.91;100.00
23241;BME280;11789;53.482;9.862;2023-03-20T07:59:12;101754.03;;;7.89;100.00
23241;BME280;11789;53.482;9.862;2023-03-20T08:01:38;101754.12;;;7.92;100.00
23241;BME280;11789;53.482;9.862;2023-03-20T08:04:03;101756.69;;;7.92;100.00
23241;BME280;11789;53.482;9.862;2023-03-20T08:06:29;101762.72;;;7.93;100.00
23241;BME280;11789;53.482;9.862;2023-03-20T08:08:55;101763.53;;;7.92;100.00
23241;BME280;11789;53.482;9.862;2023-03-20T08:11:20;101761.84;;;7.92;100.00
23241;BME280;11789;53.482;9.862;2023-03-20T08:13:46;101762.78;;;7.96;100.00
23241;BME280;11789;53.482;9.862;2023-03-20T08:16:11;101761.12;;;7.99;100.00
23241;BME280;11789;53.482;9.862;2023-03-20T08:18:37;101768.09;;;8.02;100.00
23241;BME280;11789;53.482;9.862;2023-03-20T08:21:03;101768.09;;;8.02;100.00
23241;BME280;11789;53.482;9.862;2023-03-20T08:23:28;101764.66;;;8.03;100.00
23241;BME280;11789;53.482;9.862;2023-03-20T08:25:54;101775.06;;;8.06;100.00
23241;BME280;11789;53.482;9.862;2023-03-20T08:28:20;101776.78;;;8.07;100.00
23241;BME280;11789;53.482;9.862;2023-03-20T08:30:46;101775.09;;;8.07;100.00
23241;BME280;11789;53.482;9.862;2023-03-20T08:33:13;101781.97;;;8.09;100.00
23241;BME280;11789;53.482;9.862;2023-03-20T08:35:39;101777.66;;;8.07;100.00
23241;BME280;11789;53.482;9.862;2023-03-20T08:38:04;101781.00;;;8.05;100.00
23241;BME280;11789;53.482;9.862;2023-03-20T08:40:30;101787.88;;;8.04;100.00
23241;BME280;11789;53.482;9.862;2023-03-20T08:42:56;101782.66;;;8.01;100.00
23241;BME280;11789;53.482;9.862;2023-03-20T08:45:22;101781.81;;;8.01;100.00
23241;BME280;11789;53.482;9.862;2023-03-20T08:47:51;101787.81;;;8.01;100.00
23241;BME280;11789;53.482;9.862;2023-03-20T08:50:17;101780.09;;;8.01;100.00
23241;BME280;11789;53.482;9.862;2023-03-20T08:52:43;101787.88;;;8.04;100.00
23241;BME280;11789;53.482;9.862;2023-03-20T08:55:12;101791.38;;;8.06;100.00
23241;BME280;11789;53.482;9.862;2023-03-20T08:57:39;101780.16;;;8.04;100.00
23241;BME280;11789;53.482;9.862;2023-03-20T09:00:05;101786.13;;;8.03;100.00
23241;BME280;11789;53.482;9.862;2023-03-20T09:02:31;101787.03;;;8.05;100.00
23241;BME280;11789;53.482;9.862;2023-03-20T09:04:57;101784.53;;;8.09;100.00
23241;BME280;11789;53.482;9.862;2023-03-20T09:07:23;101776.09;;;8.14;100.00
23241;BME280;11789;53.482;9.862;2023-03-20T09:09:48;101783.03;;;8.17;100.00
23241;BME280;11789;53.482;9.862;2023-03-20T09:12:14;101778.66;;;8.14;100.00
23241;BME280;11789;53.482;9.862;2023-03-20T09:14:40;101785.56;;;8.15;100.00
23241;BME280;11789;53.482;9.862;2023-03-20T09:17:06;101784.62;;;8.12;100.00
23241;BME280;11789;53.482;9.862;2023-03-20T09:19:32;101787.09;;;8.07;100.00
23241;BME280;11789;53.482;9.862;2023-03-20T09:21:57;101788.81;;;8.06;100.00
23241;BME280;11789;53.482;9.862;2023-03-20T09:24:23;101785.31;;;8.04;100.00
23241;BME280;11789;53.482;9.862;2023-03-20T09:26:49;101783.56;;;8.03;100.00
23241;BME280;11789;53.482;9.862;2023-03-20T09:29:15;101780.91;;;8.00;100.00
23241;BME280;11789;53.482;9.862;2023-03-20T09:31:40;101783.44;;;7.99;100.00
23241;BME280;11789;53.482;9.862;2023-03-20T09:34:06;101774.00;;;7.99;100.00
23241;BME280;11789;53.482;9.862;2023-03-20T09:36:32;101781.81;;;8.02;100.00
23241;BME280;11789;53.482;9.862;2023-03-20T09:38:58;101785.38;;;8.07;100.00
23241;BME280;11789;53.482;9.862;2023-03-20T09:41:24;101791.50;;;8.11;100.00
23241;BME280;11789;53.482;9.862;2023-03-20T09:47:03;101783.03;;;8.17;100.00
23241;BME280;11789;53.482;9.862;2023-03-20T09:53:12;101789.19;;;8.23;100.00
23241;BME280;11789;53.482;9.862;2023-03-20T09:55:40;101795.31;;;8.27;100.00
23241;BME280;11789;53.482;9.862;2023-03-20T09:58:26;101796.19;;;8.29;100.00
23241;BME280;11789;53.482;9.862;2023-03-20T10:00:56;101799.66;;;8.31;100.00
23241;BME280;11789;53.482;9.862;2023-03-20T10:03:31;101803.13;;;8.31;100.00
23241;BME280;11789;53.482;9.862;2023-03-20T10:06:08;101803.09;;;8.30;100.00
23241;BME280;11789;53.482;9.862;2023-03-20T10:08:37;101804.81;;;8.31;100.00
23241;BME280;11789;53.482;9.862;2023-03-20T10:13:39;101793.69;;;8.32;100.00
23241;BME280;11789;53.482;9.862;2023-03-20T10:21:42;101786.97;;;8.37;100.00
23241;BME280;11789;53.482;9.862;2023-03-20T10:24:16;101792.28;;;8.43;100.00
23241;BME280;11789;53.482;9.862;2023-03-20T10:26:45;101787.13;;;8.45;100.00
23241;BME280;11789;53.482;9.862;2023-03-20T10:32:27;101796.41;;;8.37;97.32
23241;BME280;11789;53.482;9.862;2023-03-20T10:34:56;101796.31;;;8.35;98.00
23241;BME280;11789;53.482;9.862;2023-03-20T10:40:24;101782.75;;;8.41;98.52
23241;BME280;11789;53.482;9.862;2023-03-20T10:42:53;101778.66;;;8.49;98.97
23241;BME280;11789;53.482;9.862;2023-03-20T10:47:53;101764.91;;;8.50;95.73
23241;BME280;11789;53.482;9.862;2023-03-20T10:50:28;101765.75;;;8.49;95.38
23241;BME280;11789;53.482;9.862;2023-03-20T10:52:55;101768.31;;;8.47;95.76
23241;BME280;11789;53.482;9.862;2023-03-20T10:55:29;101769.09;;;8.45;95.12
23241;BME280;11789;53.482;9.862;2023-03-20T10:58:12;101780.25;;;8.44;95.43
23241;BME280;11789;53.482;9.862;2023-03-20T11:00:39;101764.75;;;8.42;95.75
23241;BME280;11789;53.482;9.862;2023-03-20T11:03:06;101769.06;;;8.42;95.62
23241;BME280;11789;53.482;9.862;2023-03-20T11:05:36;101764.03;;;8.48;94.96
23241;BME280;11789;53.482;9.862;2023-03-20T11:08:09;101754.63;;;8.51;94.45
23241;BME280;11789;53.482;9.862;2023-03-20T11:10:37;101759.03;;;8.55;93.66
23241;BME280;11789;53.482;9.862;2023-03-20T11:13:22;101759.13;;;8.60;93.21
23241;BME280;11789;53.482;9.862;2023-03-20T11:15:51;101770.38;;;8.64;91.77
23241;BME280;11789;53.482;9.862;2023-03-20T11:18:17;101760.94;;;8.64;91.25
23241;BME280;11789;53.482;9.862;2023-03-20T11:20:56;101755.87;;;8.69;91.71
23241;BME280;11789;53.482;9.862;2023-03-20T11:23:32;101758.53;;;8.72;91.27
23241;BME280;11789;53.482;9.862;2023-03-20T11:26:11;101756.00;;;8.75;91.24
23241;BME280;11789;53.482;9.862;2023-03-20T11:28:59;101756.03;;;8.76;91.20
23241;BME280;11789;53.482;9.862;2023-03-20T11:31:36;101746.63;;;8.77;90.99
23241;BME280;11789;53.482;9.862;2023-03-20T11:36:38;101740.00;;;8.91;89.56
23241;BME280;11789;53.482;9.862;2023-03-20T11:39:21;101738.47;;;8.99;89.31
23241;BME280;11789;53.482;9.862;2023-03-20T11:41:51;101735.03;;;9.00;88.21
23241;BME280;11789;53.482;9.862;2023-03-20T11:44:26;101734.06;;;8.95;87.08
23241;BME280;11789;53.482;9.862;2023-03-20T11:47:14;101732.41;;;8.97;87.45
23241;BME280;11789;53.482;9.862;2023-03-20T11:49:50;101734.16;;;9.00;87.74
23241;BME280;11789;53.482;9.862;2023-03-20T11:52:30;101730.75;;;9.01;88.04
23241;BME280;11789;53.482;9.862;2023-03-20T11:55:00;101729.09;;;9.03;88.31
23241;BME280;11789;53.482;9.862;2023-03-20T11:57:38;101729.09;;;9.03;88.21
23241;BME280;11789;53.482;9.862;2023-03-20T12:00:27;101728.25;;;9.05;87.96
23241;BME280;11789;53.482;9.862;2023-03-20T12:02:53;101724.03;;;9.09;87.42
23241;BME280;11789;53.482;9.862;2023-03-20T12:05:30;101735.31;;;9.14;87.67
23241;BME280;11789;53.482;9.862;2023-03-20T12:08:00;101731.87;;;9.14;86.77
23241;BME280;11789;53.482;9.862;2023-03-20T12:10:30;101725.00;;;9.16;86.69
23241;BME280;11789;53.482;9.862;2023-03-20T12:13:02;101728.56;;;9.21;87.48
23241;BME280;11789;53.482;9.862;2023-03-20T12:15:37;101724.31;;;9.24;87.37
23241;BME280;11789;53.482;9.862;2023-03-20T12:23:55;101725.31;;;9.31;86.98
23241;BME280;11789;53.482;9.862;2023-03-20T12:26:36;101718.44;;;9.31;85.59
23241;BME280;11789;53.482;9.862;2023-03-20T12:29:29;101721.00;;;9.31;84.56
23241;BME280;11789;53.482;9.862;2023-03-20T12:32:01;101721.87;;;9.32;84.05
23241;BME280;11789;53.482;9.862;2023-03-20T12:34:34;101718.50;;;9.34;84.23
23241;BME280;11789;53.482;9.862;2023-03-20T12:37:02;101724.59;;;9.38;84.55
23241;BME280;11789;53.482;9.862;2023-03-20T12:39:37;101726.34;;;9.42;84.58
23241;BME280;11789;53.482;9.862;2023-03-20T12:47:52;101713.72;;;9.57;82.76
23241;BME280;11789;53.482;9.862;2023-03-20T12:50:42;101713.91;;;9.68;81.97
23241;BME280;11789;53.482;9.862;2023-03-20T12:53:33;101711.50;;;9.79;81.07
23241;BME280;11789;53.482;9.862;2023-03-20T12:59:04;101698.84;;;9.94;79.28
23241;BME280;11789;53.482;9.862;2023-03-20T13:01:39;101693.78;;;10.03;78.46
23241;BME280;11789;53.482;9.862;2023-03-20T13:07:02;101692.19;;;10.10;78.17
23241;BME280;11789;53.482;9.862;2023-03-20T13:12:39;101690.19;;;9.92;76.19
23241;BME280;11789;53.482;9.862;2023-03-20T13:20:55;101681.25;;;9.72;78.05
23241;BME280;11789;53.482;9.862;2023-03-20T13:42:30;101683.41;;;9.44;78.47
23241;BME280;11789;53.482;9.862;2023-03-20T13:45:04;101687.63;;;9.42;77.94
23241;BME280;11789;53.482;9.862;2023-03-20T13:47:32;101684.25;;;9.43;78.87
23241;BME280;11789;53.482;9.862;2023-03-20T13:53:36;101678.19;;;9.43;79.79
23241;BME280;11789;53.482;9.862;2023-03-20T13:56:05;101675.59;;;9.41;79.12
23241;BME280;11789;53.482;9.862;2023-03-20T13:58:58;101671.25;;;9.39;78.29
23241;BME280;11789;53.482;9.862;2023-03-20T14:01:44;101668.63;;;9.37;78.34
23241;BME280;11789;53.482;9.862;2023-03-20T14:04:16;101662.66;;;9.38;78.45
23241;BME280;11789;53.482;9.862;2023-03-20T14:06:50;101663.53;;;9.40;78.24
23241;BME280;11789;53.482;9.862;2023-03-20T14:09:27;101664.41;;;9.42;78.75
23241;BME280;11789;53.482;9.862;2023-03-20T14:11:56;101662.75;;;9.44;78.67
23241;BME280;11789;53.482;9.862;2023-03-20T14:14:29;101664.47;;;9.45;78.66
23241;BME280;11789;53.482;9.862;2023-03-20T14:17:06;101661.84;;;9.42;78.56
23241;BME280;11789;53.482;9.862;2023-03-20T14:19:34;101662.75;;;9.44;79.21
23241;BME280;11789;53.482;9.862;2023-03-20T14:22:00;101662.69;;;9.41;78.31
23241;BME280;11789;53.482;9.862;2023-03-20T14:24:26;101665.25;;;9.41;78.15
23241;BME280;11789;53.482;9.862;2023-03-20T14:27:00;101658.38;;;9.40;78.06
23241;BME280;11789;53.482;9.862;2023-03-20T14:32:03;101660.06;;;9.38;77.48
23241;BME280;11789;53.482;9.862;2023-03-20T14:37:36;101665.19;;;9.36;78.40
23241;BME280;11789;53.482;9.862;2023-03-20T14:40:15;101666.03;;;9.37;78.91
23241;BME280;11789;53.482;9.862;2023-03-20T14:45:46;101658.28;;;9.34;79.73
23241;BME280;11789;53.482;9.862;2023-03-20T14:53:29;101653.91;;;9.30;80.00
23241;BME280;11789;53.482;9.862;2023-03-20T14:56:00;101655.59;;;9.28;80.84
23241;BME280;11789;53.482;9.862;2023-03-20T15:07:04;101654.66;;;9.23;80.43
23241;BME280;11789;53.482;9.862;2023-03-20T15:09:35;101656.38;;;9.24;80.80
23241;BME280;11789;53.482;9.862;2023-03-20T15:12:02;101660.63;;;9.22;81.54
23241;BME280;11789;53.482;9.862;2023-03-20T15:14:54;101658.03;;;9.22;81.53
23241;BME280;11789;53.482;9.862;2023-03-20T15:17:21;101658.91;;;9.22;81.09
23241;BME280;11789;53.482;9.862;2023-03-20T15:19:47;101659.81;;;9.23;81.49
23241;BME280;11789;53.482;9.862;2023-03-20T15:22:18;101670.13;;;9.23;83.61
23241;BME280;11789;53.482;9.862;2023-03-20T15:24:52;101661.44;;;9.18;84.78